sensor_id;sensor_type;location;lat;lon;timestamp;temperature;humidity
35690;DHT22;26977;44.830;-0.674;2022-09-09T00:01:43;15.70;99.90
35690;DHT22;26977;44.830;-0.674;2022-09-09T00:09:49;15.70;99.90
35690;DHT22;26977;44.830;-0.674;2022-09-09T00:12:32;15.90;99.90
35690;DHT22;26977;44.830;-0.674;2022-09-09T00:15:25;15.80;99.90
35690;DHT22;26977;44.830;-0.674;2022-09-09T00:18:00;15.70;99.90
35690;DHT22;26977;44.830;-0.674;2022-09-09T00:20:35;15.70;99.90
35690;DHT22;26977;44.830;-0.674;2022-09-09T00:23:12;15.80;99.90
35690;DHT22;26977;44.830;-0.674;2022-09-09T00:25:44;15.80;99.90
35690;DHT22;26977;44.830;-0.674;2022-09-09T00:28:22;15.80;99.90
35690;DHT22;26977;44.830;-0.674;2022-09-09T00:30:48;15.80;99.90
35690;DHT22;26977;44.830;-0.674;2022-09-09T00:33:22;15.70;99.90
35690;DHT22;26977;44.830;-0.674;2022-09-09T00:35:51;15.60;99.90
35690;DHT22;26977;44.830;-0.674;2022-09-09T00:52:18;15.70;99.90
35690;DHT22;26977;44.830;-0.674;2022-09-09T00:54:54;15.80;99.90
35690;DHT22;26977;44.830;-0.674;2022-09-09T00:57:28;15.80;99.90
35690;DHT22;26977;44.830;-0.674;2022-09-09T00:59:58;15.70;99.90
35690;DHT22;26977;44.830;-0.674;2022-09-09T01:05:09;15.50;99.90
35690;DHT22;26977;44.830;-0.674;2022-09-09T01:07:37;15.50;99.90
35690;DHT22;26977;44.830;-0.674;2022-09-09T01:10:09;15.40;99.90
35690;DHT22;26977;44.830;-0.674;2022-09-09T01:12:42;15.40;99.90
35690;DHT22;26977;44.830;-0.674;2022-09-09T01:15:10;15.40;99.90
35690;DHT22;26977;44.830;-0.674;2022-09-09T01:20:23;15.50;99.90
35690;DHT22;26977;44.830;-0.674;2022-09-09T01:28:41;15.60;99.90
35690;DHT22;26977;44.830;-0.674;2022-09-09T01:31:10;15.50;99.90
35690;DHT22;26977;44.830;-0.674;2022-09-09T01:33:37;15.60;99.90
35690;DHT22;26977;44.830;-0.674;2022-09-09T01:36:09;15.70;99.90
35690;DHT22;26977;44.830;-0.674;2022-09-09T01:38:37;15.70;99.90
35690;DHT22;26977;44.830;-0.674;2022-09-09T01:41:04;15.70;99.90
35690;DHT22;26977;44.830;-0.674;2022-09-09T01:43:30;15.70;99.90
35690;DHT22;26977;44.830;-0.674;2022-09-09T01:45:59;15.80;99.90
35690;DHT22;26977;44.830;-0.674;2022-09-09T01:48:27;15.80;99.90
35690;DHT22;26977;44.830;-0.674;2022-09-09T01:50:52;15.90;99.90
35690;DHT22;26977;44.830;-0.674;2022-09-09T01:53:20;15.80;99.90
35690;DHT22;26977;44.830;-0.674;2022-09-09T02:01:17;15.50;99.90
35690;DHT22;26977;44.830;-0.674;2022-09-09T02:03:50;15.30;99.90
35690;DHT22;26977;44.830;-0.674;2022-09-09T02:06:34;15.30;99.90
35690;DHT22;26977;44.830;-0.674;2022-09-09T02:09:04;15.20;99.90
35690;DHT22;26977;44.830;-0.674;2022-09-09T02:11:30;15.10;99.90
35690;DHT22;26977;44.830;-0.674;2022-09-09T02:14:16;15.00;99.90
35690;DHT22;26977;44.830;-0.674;2022-09-09T02:16:56;14.90;99.90
35690;DHT22;26977;44.830;-0.674;2022-09-09T02:19:32;14.90;99.90
35690;DHT22;26977;44.830;-0.674;2022-09-09T02:22:00;15.10;99.90
35690;DHT22;26977;44.830;-0.674;2022-09-09T02:24:30;15.00;99.90
35690;DHT22;26977;44.830;-0.674;2022-09-09T02:26:56;15.00;99.90
35690;DHT22;26977;44.830;-0.674;2022-09-09T02:29:26;15.10;99.90
35690;DHT22;26977;44.830;-0.674;2022-09-09T02:31:55;15.10;99.90
35690;DHT22;26977;44.830;-0.674;2022-09-09T02:34:23;15.10;99.90
35690;DHT22;26977;44.830;-0.674;2022-09-09T02:36:54;15.20;99.90
35690;DHT22;26977;44.830;-0.674;2022-09-09T02:39:20;15.20;99.90
35690;DHT22;26977;44.830;-0.674;2022-09-09T02:41:46;15.20;99.90
35690;DHT22;26977;44.830;-0.674;2022-09-09T02:44:14;15.20;99.90
35690;DHT22;26977;44.830;-0.674;2022-09-09T02:57:55;15.20;99.90
35690;DHT22;26977;44.830;-0.674;2022-09-09T03:00:26;15.30;99.90
35690;DHT22;26977;44.830;-0.674;2022-09-09T03:02:52;15.40;99.90
35690;DHT22;26977;44.830;-0.674;2022-09-09T03:05:20;15.40;99.90
35690;DHT22;26977;44.830;-0.674;2022-09-09T03:07:46;15.50;99.90
35690;DHT22;26977;44.830;-0.674;2022-09-09T03:10:11;15.60;99.90
35690;DHT22;26977;44.830;-0.674;2022-09-09T03:12:37;15.70;99.90
35690;DHT22;26977;44.830;-0.674;2022-09-09T03:15:04;15.80;99.90
35690;DHT22;26977;44.830;-0.674;2022-09-09T03:17:32;15.80;99.90
35690;DHT22;26977;44.830;-0.674;2022-09-09T03:19:58;15.90;99.90
35690;DHT22;26977;44.830;-0.674;2022-09-09T03:22:24;15.90;99.90
35690;DHT22;26977;44.830;-0.674;2022-09-09T03:24:51;15.90;99.90
35690;DHT22;26977;44.830;-0.674;2022-09-09T03:27:18;16.00;99.90
35690;DHT22;26977;44.830;-0.674;2022-09-09T03:29:45;16.10;99.90
35690;DHT22;26977;44.830;-0.674;2022-09-09T03:32:10;16.10;99.90
35690;DHT22;26977;44.830;-0.674;2022-09-09T03:34:36;16.20;99.90
35690;DHT22;26977;44.830;-0.674;2022-09-09T03:37:05;16.20;99.90
35690;DHT22;26977;44.830;-0.674;2022-09-09T03:39:31;16.20;99.90
35690;DHT22;26977;44.830;-0.674;2022-09-09T03:41:57;16.20;99.90
35690;DHT22;26977;44.830;-0.674;2022-09-09T03:44:23;16.20;99.90
35690;DHT22;26977;44.830;-0.674;2022-09-09T03:46:48;16.20;99.90
35690;DHT22;26977;44.830;-0.674;2022-09-09T03:49:14;16.10;99.90
35690;DHT22;26977;44.830;-0.674;2022-09-09T03:51:40;16.10;99.90
35690;DHT22;26977;44.830;-0.674;2022-09-09T03:54:07;16.10;99.90
35690;DHT22;26977;44.830;-0.674;2022-09-09T03:56:35;16.10;99.90
35690;DHT22;26977;44.830;-0.674;2022-09-09T03:59:01;16.00;99.90
35690;DHT22;26977;44.830;-0.674;2022-09-09T04:01:28;16.00;99.90
35690;DHT22;26977;44.830;-0.674;2022-09-09T04:03:53;16.00;99.90
35690;DHT22;26977;44.830;-0.674;2022-09-09T04:06:22;15.80;99.90
35690;DHT22;26977;44.830;-0.674;2022-09-09T04:08:48;15.70;99.90
35690;DHT22;26977;44.830;-0.674;2022-09-09T04:11:14;15.60;99.90
35690;DHT22;26977;44.830;-0.674;2022-09-09T04:13:41;15.60;99.90
35690;DHT22;26977;44.830;-0.674;2022-09-09T04:16:09;15.60;99.90
35690;DHT22;26977;44.830;-0.674;2022-09-09T04:18:35;15.70;99.90
35690;DHT22;26977;44.830;-0.674;2022-09-09T04:21:01;15.70;99.90
35690;DHT22;26977;44.830;-0.674;2022-09-09T04:23:28;15.70;99.90
35690;DHT22;26977;44.830;-0.674;2022-09-09T04:25:56;15.60;99.90
35690;DHT22;26977;44.830;-0.674;2022-09-09T04:28:25;15.50;99.90
35690;DHT22;26977;44.830;-0.674;2022-09-09T04:30:51;15.40;99.90
35690;DHT22;26977;44.830;-0.674;2022-09-09T04:33:17;15.40;99.90
35690;DHT22;26977;44.830;-0.674;2022-09-09T04:35:49;15.40;99.90
35690;DHT22;26977;44.830;-0.674;2022-09-09T04:38:16;15.20;99.90
35690;DHT22;26977;44.830;-0.674;2022-09-09T04:40:46;15.10;99.90
35690;DHT22;26977;44.830;-0.674;2022-09-09T04:43:12;15.30;99.90
35690;DHT22;26977;44.830;-0.674;2022-09-09T04:45:40;15.20;99.90
35690;DHT22;26977;44.830;-0.674;2022-09-09T04:48:06;15.20;99.90
35690;DHT22;26977;44.830;-0.674;2022-09-09T04:50:31;15.10;99.90
35690;DHT22;26977;44.830;-0.674;2022-09-09T04:53:03;15.20;99.90
35690;DHT22;26977;44.830;-0.674;2022-09-09T04:55:30;15.10;99.90
35690;DHT22;26977;44.830;-0.674;2022-09-09T04:57:56;15.20;99.90
35690;DHT22;26977;44.830;-0.674;2022-09-09T05:00:24;15.40;99.90
35690;DHT22;26977;44.830;-0.674;2022-09-09T05:02:49;15.40;99.90
35690;DHT22;26977;44.830;-0.674;2022-09-09T05:05:15;15.40;99.90
35690;DHT22;26977;44.830;-0.674;2022-09-09T05:07:42;15.40;99.90
35690;DHT22;26977;44.830;-0.674;2022-09-09T05:10:09;15.50;99.90
35690;DHT22;26977;44.830;-0.674;2022-09-09T05:12:35;15.50;99.90
35690;DHT22;26977;44.830;-0.674;2022-09-09T05:15:01;15.40;99.90
35690;DHT22;26977;44.830;-0.674;2022-09-09T05:17:27;15.30;99.90
35690;DHT22;26977;44.830;-0.674;2022-09-09T05:19:53;15.30;99.90
35690;DHT22;26977;44.830;-0.674;2022-09-09T05:22:20;15.20;99.90
35690;DHT22;26977;44.830;-0.674;2022-09-09T05:24:46;15.30;99.90
35690;DHT22;26977;44.830;-0.674;2022-09-09T05:27:12;15.20;99.90
35690;DHT22;26977;44.830;-0.674;2022-09-09T05:29:38;15.30;99.90
35690;DHT22;26977;44.830;-0.674;2022-09-09T05:32:04;15.30;99.90
35690;DHT22;26977;44.830;-0.674;2022-09-09T05:34:30;15.40;99.90
35690;DHT22;26977;44.830;-0.674;2022-09-09T05:36:56;15.30;99.90
35690;DHT22;26977;44.830;-0.674;2022-09-09T05:39:21;15.40;99.90
35690;DHT22;26977;44.830;-0.674;2022-09-09T05:41:47;15.40;99.90
35690;DHT22;26977;44.830;-0.674;2022-09-09T05:44:13;15.40;99.90
35690;DHT22;26977;44.830;-0.674;2022-09-09T05:46:39;15.40;99.90
35690;DHT22;26977;44.830;-0.674;2022-09-09T05:49:05;15.30;99.90
35690;DHT22;26977;44.830;-0.674;2022-09-09T05:51:31;15.30;99.90
35690;DHT22;26977;44.830;-0.674;2022-09-09T05:53:57;15.20;99.90
35690;DHT22;26977;44.830;-0.674;2022-09-09T05:56:27;15.10;99.90
35690;DHT22;26977;44.830;-0.674;2022-09-09T05:58:54;15.00;99.90
35690;DHT22;26977;44.830;-0.674;2022-09-09T06:01:26;15.00;99.90
35690;DHT22;26977;44.830;-0.674;2022-09-09T06:03:53;15.00;99.90
35690;DHT22;26977;44.830;-0.674;2022-09-09T06:06:33;15.20;99.90
35690;DHT22;26977;44.830;-0.674;2022-09-09T06:09:02;15.30;99.90
35690;DHT22;26977;44.830;-0.674;2022-09-09T06:11:30;15.30;99.90
35690;DHT22;26977;44.830;-0.674;2022-09-09T06:13:59;15.40;99.90
35690;DHT22;26977;44.830;-0.674;2022-09-09T06:16:27;15.50;99.90
35690;DHT22;26977;44.830;-0.674;2022-09-09T06:18:54;15.60;99.90
35690;DHT22;26977;44.830;-0.674;2022-09-09T06:23:50;15.90;99.90
35690;DHT22;26977;44.830;-0.674;2022-09-09T06:26:21;15.90;99.90
35690;DHT22;26977;44.830;-0.674;2022-09-09T06:28:49;15.90;99.90
35690;DHT22;26977;44.830;-0.674;2022-09-09T06:31:17;16.00;99.90
35690;DHT22;26977;44.830;-0.674;2022-09-09T06:33:43;16.10;99.90
35690;DHT22;26977;44.830;-0.674;2022-09-09T06:36:12;16.10;99.90
35690;DHT22;26977;44.830;-0.674;2022-09-09T06:38:39;16.10;99.90
35690;DHT22;26977;44.830;-0.674;2022-09-09T06:41:05;16.20;99.90
35690;DHT22;26977;44.830;-0.674;2022-09-09T06:43:31;16.30;99.90
35690;DHT22;26977;44.830;-0.674;2022-09-09T06:45:59;16.50;99.90
35690;DHT22;26977;44.830;-0.674;2022-09-09T06:48:25;16.50;99.90
35690;DHT22;26977;44.830;-0.674;2022-09-09T06:51:08;16.60;99.90
35690;DHT22;26977;44.830;-0.674;2022-09-09T06:53:36;16.80;99.90
35690;DHT22;26977;44.830;-0.674;2022-09-09T06:58:40;17.10;99.90
35690;DHT22;26977;44.830;-0.674;2022-09-09T07:01:13;17.30;99.90
35690;DHT22;26977;44.830;-0.674;2022-09-09T07:03:40;17.60;99.90
35690;DHT22;26977;44.830;-0.674;2022-09-09T07:06:07;17.90;99.90
35690;DHT22;26977;44.830;-0.674;2022-09-09T07:08:34;18.10;99.90
35690;DHT22;26977;44.830;-0.674;2022-09-09T07:11:04;18.30;99.90
35690;DHT22;26977;44.830;-0.674;2022-09-09T07:13:31;18.40;99.90
35690;DHT22;26977;44.830;-0.674;2022-09-09T07:16:24;18.50;99.90
35690;DHT22;26977;44.830;-0.674;2022-09-09T07:18:50;18.40;99.90
35690;DHT22;26977;44.830;-0.674;2022-09-09T07:21:17;18.40;99.90
35690;DHT22;26977;44.830;-0.674;2022-09-09T07:23:43;18.50;99.90
35690;DHT22;26977;44.830;-0.674;2022-09-09T07:28:36;18.80;99.90
35690;DHT22;26977;44.830;-0.674;2022-09-09T07:31:02;19.00;99.90
35690;DHT22;26977;44.830;-0.674;2022-09-09T07:33:29;19.00;99.90
35690;DHT22;26977;44.830;-0.674;2022-09-09T07:36:18;19.20;99.90
35690;DHT22;26977;44.830;-0.674;2022-09-09T07:38:50;19.40;99.90
35690;DHT22;26977;44.830;-0.674;2022-09-09T07:41:25;19.50;99.90
35690;DHT22;26977;44.830;-0.674;2022-09-09T07:43:52;19.70;99.90
35690;DHT22;26977;44.830;-0.674;2022-09-09T07:46:20;19.90;99.90
35690;DHT22;26977;44.830;-0.674;2022-09-09T07:48:48;20.10;99.90
35690;DHT22;26977;44.830;-0.674;2022-09-09T07:51:20;20.30;99.90
35690;DHT22;26977;44.830;-0.674;2022-09-09T07:53:47;20.50;99.90
35690;DHT22;26977;44.830;-0.674;2022-09-09T07:56:15;20.30;99.90
35690;DHT22;26977;44.830;-0.674;2022-09-09T07:58:44;20.00;99.90
35690;DHT22;26977;44.830;-0.674;2022-09-09T08:01:15;19.60;99.90
35690;DHT22;26977;44.830;-0.674;2022-09-09T08:03:44;19.70;99.90
35690;DHT22;26977;44.830;-0.674;2022-09-09T08:06:11;19.80;99.90
35690;DHT22;26977;44.830;-0.674;2022-09-09T08:08:38;20.00;99.90
35690;DHT22;26977;44.830;-0.674;2022-09-09T08:11:09;20.10;99.90
35690;DHT22;26977;44.830;-0.674;2022-09-09T08:13:36;20.10;99.90
35690;DHT22;26977;44.830;-0.674;2022-09-09T08:16:23;20.20;99.90
35690;DHT22;26977;44.830;-0.674;2022-09-09T08:18:50;20.20;99.90
35690;DHT22;26977;44.830;-0.674;2022-09-09T08:21:22;20.50;99.90
35690;DHT22;26977;44.830;-0.674;2022-09-09T08:23:51;20.40;99.90
35690;DHT22;26977;44.830;-0.674;2022-09-09T08:26:25;20.50;99.90
35690;DHT22;26977;44.830;-0.674;2022-09-09T08:28:53;20.50;99.90
35690;DHT22;26977;44.830;-0.674;2022-09-09T08:31:22;20.50;99.90
35690;DHT22;26977;44.830;-0.674;2022-09-09T08:33:48;20.60;99.90
35690;DHT22;26977;44.830;-0.674;2022-09-09T08:36:17;20.80;99.90
35690;DHT22;26977;44.830;-0.674;2022-09-09T08:38:43;21.10;99.90
35690;DHT22;26977;44.830;-0.674;2022-09-09T08:43:48;21.50;99.90
35690;DHT22;26977;44.830;-0.674;2022-09-09T08:46:24;21.50;99.00
35690;DHT22;26977;44.830;-0.674;2022-09-09T08:49:02;21.00;98.90
35690;DHT22;26977;44.830;-0.674;2022-09-09T08:51:30;20.90;98.90
35690;DHT22;26977;44.830;-0.674;2022-09-09T08:54:00;21.20;98.80
35690;DHT22;26977;44.830;-0.674;2022-09-09T08:56:28;21.30;98.10
35690;DHT22;26977;44.830;-0.674;2022-09-09T08:58:56;21.60;96.70
35690;DHT22;26977;44.830;-0.674;2022-09-09T09:10:49;22.90;95.20
35690;DHT22;26977;44.830;-0.674;2022-09-09T09:13:20;22.30;96.20
35690;DHT22;26977;44.830;-0.674;2022-09-09T09:15:57;21.60;97.20
35690;DHT22;26977;44.830;-0.674;2022-09-09T09:18:24;21.20;98.70
35690;DHT22;26977;44.830;-0.674;2022-09-09T09:21:12;20.90;98.70
35690;DHT22;26977;44.830;-0.674;2022-09-09T09:23:58;20.70;99.40
35690;DHT22;26977;44.830;-0.674;2022-09-09T09:26:33;21.00;97.50
35690;DHT22;26977;44.830;-0.674;2022-09-09T09:29:03;21.60;95.80
35690;DHT22;26977;44.830;-0.674;2022-09-09T09:31:33;21.90;94.60
35690;DHT22;26977;44.830;-0.674;2022-09-09T09:33:59;22.20;94.10
35690;DHT22;26977;44.830;-0.674;2022-09-09T09:36:43;22.60;93.30
35690;DHT22;26977;44.830;-0.674;2022-09-09T09:39:10;22.90;95.80
35690;DHT22;26977;44.830;-0.674;2022-09-09T09:41:38;21.70;99.90
35690;DHT22;26977;44.830;-0.674;2022-09-09T09:44:18;19.70;99.90
35690;DHT22;26977;44.830;-0.674;2022-09-09T09:46:47;18.50;99.90
35690;DHT22;26977;44.830;-0.674;2022-09-09T09:49:12;18.10;99.90
35690;DHT22;26977;44.830;-0.674;2022-09-09T09:51:39;18.00;99.90
35690;DHT22;26977;44.830;-0.674;2022-09-09T09:56:41;18.50;99.90
35690;DHT22;26977;44.830;-0.674;2022-09-09T09:59:24;18.90;99.90
35690;DHT22;26977;44.830;-0.674;2022-09-09T10:04:38;19.30;99.90
35690;DHT22;26977;44.830;-0.674;2022-09-09T10:07:20;19.40;99.90
35690;DHT22;26977;44.830;-0.674;2022-09-09T10:09:52;17.90;99.90
35690;DHT22;26977;44.830;-0.674;2022-09-09T10:12:28;16.80;99.90
35690;DHT22;26977;44.830;-0.674;2022-09-09T10:17:40;16.60;99.90
35690;DHT22;26977;44.830;-0.674;2022-09-09T10:20:15;16.80;99.90
35690;DHT22;26977;44.830;-0.674;2022-09-09T10:22:50;17.10;99.90
35690;DHT22;26977;44.830;-0.674;2022-09-09T10:31:00;17.60;99.90
35690;DHT22;26977;44.830;-0.674;2022-09-09T10:36:44;18.40;99.90
35690;DHT22;26977;44.830;-0.674;2022-09-09T10:42:22;18.80;99.90
35690;DHT22;26977;44.830;-0.674;2022-09-09T10:56:29;19.30;99.90
35690;DHT22;26977;44.830;-0.674;2022-09-09T10:59:16;19.10;99.90
35690;DHT22;26977;44.830;-0.674;2022-09-09T11:01:58;19.00;99.90
35690;DHT22;26977;44.830;-0.674;2022-09-09T11:04:34;19.10;99.90
35690;DHT22;26977;44.830;-0.674;2022-09-09T11:07:05;19.30;99.90
35690;DHT22;26977;44.830;-0.674;2022-09-09T11:09:41;19.70;99.90
35690;DHT22;26977;44.830;-0.674;2022-09-09T11:12:13;19.70;99.90
35690;DHT22;26977;44.830;-0.674;2022-09-09T11:14:47;20.10;99.90
35690;DHT22;26977;44.830;-0.674;2022-09-09T11:17:35;20.00;99.90
35690;DHT22;26977;44.830;-0.674;2022-09-09T11:20:05;19.50;99.90
35690;DHT22;26977;44.830;-0.674;2022-09-09T11:22:34;19.40;99.90
35690;DHT22;26977;44.830;-0.674;2022-09-09T11:25:10;19.40;99.90
35690;DHT22;26977;44.830;-0.674;2022-09-09T11:30:49;19.60;99.90
35690;DHT22;26977;44.830;-0.674;2022-09-09T11:41:47;21.40;99.90
35690;DHT22;26977;44.830;-0.674;2022-09-09T11:44:18;21.30;99.30
35690;DHT22;26977;44.830;-0.674;2022-09-09T11:46:49;21.40;98.70
35690;DHT22;26977;44.830;-0.674;2022-09-09T11:49:42;21.50;97.00
35690;DHT22;26977;44.830;-0.674;2022-09-09T11:52:24;21.60;96.50
35690;DHT22;26977;44.830;-0.674;2022-09-09T11:54:54;21.60;96.90
35690;DHT22;26977;44.830;-0.674;2022-09-09T11:57:32;21.50;97.10
35690;DHT22;26977;44.830;-0.674;2022-09-09T11:59:59;21.40;97.20
35690;DHT22;26977;44.830;-0.674;2022-09-09T12:02:27;21.50;97.00
35690;DHT22;26977;44.830;-0.674;2022-09-09T12:12:34;22.20;95.70
35690;DHT22;26977;44.830;-0.674;2022-09-09T12:15:19;22.10;95.20
35690;DHT22;26977;44.830;-0.674;2022-09-09T12:28:39;21.30;95.00
35690;DHT22;26977;44.830;-0.674;2022-09-09T12:31:20;21.40;95.00
35690;DHT22;26977;44.830;-0.674;2022-09-09T12:33:49;21.30;94.80
35690;DHT22;26977;44.830;-0.674;2022-09-09T12:36:44;21.30;94.80
35690;DHT22;26977;44.830;-0.674;2022-09-09T12:39:19;21.30;96.80
35690;DHT22;26977;44.830;-0.674;2022-09-09T12:41:52;21.10;96.00
35690;DHT22;26977;44.830;-0.674;2022-09-09T12:44:23;20.90;96.60
35690;DHT22;26977;44.830;-0.674;2022-09-09T12:46:49;20.80;97.60
35690;DHT22;26977;44.830;-0.674;2022-09-09T12:49:42;20.80;97.90
35690;DHT22;26977;44.830;-0.674;2022-09-09T12:52:17;21.10;97.80
35690;DHT22;26977;44.830;-0.674;2022-09-09T12:54:46;21.40;96.70
35690;DHT22;26977;44.830;-0.674;2022-09-09T12:57:13;21.50;95.10
35690;DHT22;26977;44.830;-0.674;2022-09-09T12:59:42;21.90;95.40
35690;DHT22;26977;44.830;-0.674;2022-09-09T13:02:23;22.00;96.10
35690;DHT22;26977;44.830;-0.674;2022-09-09T13:04:49;22.00;96.40
35690;DHT22;26977;44.830;-0.674;2022-09-09T13:07:16;21.90;96.50
35690;DHT22;26977;44.830;-0.674;2022-09-09T13:09:43;21.80;95.80
35690;DHT22;26977;44.830;-0.674;2022-09-09T13:12:20;21.50;95.70
35690;DHT22;26977;44.830;-0.674;2022-09-09T13:14:52;21.40;96.20
35690;DHT22;26977;44.830;-0.674;2022-09-09T13:17:25;21.30;95.70
35690;DHT22;26977;44.830;-0.674;2022-09-09T13:19:52;21.30;95.50
35690;DHT22;26977;44.830;-0.674;2022-09-09T13:25:20;21.50;94.70
35690;DHT22;26977;44.830;-0.674;2022-09-09T13:28:02;21.60;94.60
35690;DHT22;26977;44.830;-0.674;2022-09-09T13:30:32;22.60;93.30
35690;DHT22;26977;44.830;-0.674;2022-09-09T13:33:02;23.00;91.60
35690;DHT22;26977;44.830;-0.674;2022-09-09T13:35:28;23.50;90.80
35690;DHT22;26977;44.830;-0.674;2022-09-09T13:37:54;24.20;91.10
35690;DHT22;26977;44.830;-0.674;2022-09-09T13:40:22;23.50;91.00
35690;DHT22;26977;44.830;-0.674;2022-09-09T13:42:52;22.90;91.40
35690;DHT22;26977;44.830;-0.674;2022-09-09T13:45:23;23.30;90.40
35690;DHT22;26977;44.830;-0.674;2022-09-09T13:47:53;24.10;90.50
35690;DHT22;26977;44.830;-0.674;2022-09-09T13:50:28;23.80;87.50
35690;DHT22;26977;44.830;-0.674;2022-09-09T13:52:58;23.90;88.60
35690;DHT22;26977;44.830;-0.674;2022-09-09T13:55:29;23.40;88.90
35690;DHT22;26977;44.830;-0.674;2022-09-09T13:58:02;22.90;88.40
35690;DHT22;26977;44.830;-0.674;2022-09-09T14:00:34;23.30;89.40
35690;DHT22;26977;44.830;-0.674;2022-09-09T14:03:00;23.90;86.30
35690;DHT22;26977;44.830;-0.674;2022-09-09T14:05:31;23.70;86.70
35690;DHT22;26977;44.830;-0.674;2022-09-09T14:07:58;25.00;87.90
35690;DHT22;26977;44.830;-0.674;2022-09-09T14:10:25;25.20;83.20
35690;DHT22;26977;44.830;-0.674;2022-09-09T14:12:51;23.90;81.60
35690;DHT22;26977;44.830;-0.674;2022-09-09T14:15:18;23.40;82.80
35690;DHT22;26977;44.830;-0.674;2022-09-09T14:17:44;22.90;85.00
35690;DHT22;26977;44.830;-0.674;2022-09-09T14:20:10;22.70;85.00
35690;DHT22;26977;44.830;-0.674;2022-09-09T14:22:37;23.00;85.90
35690;DHT22;26977;44.830;-0.674;2022-09-09T14:25:04;23.60;85.70
35690;DHT22;26977;44.830;-0.674;2022-09-09T14:27:31;25.20;81.40
35690;DHT22;26977;44.830;-0.674;2022-09-09T14:29:58;25.10;80.60
35690;DHT22;26977;44.830;-0.674;2022-09-09T14:32:25;24.50;81.70
35690;DHT22;26977;44.830;-0.674;2022-09-09T14:34:51;26.10;79.70
35690;DHT22;26977;44.830;-0.674;2022-09-09T14:37:17;24.60;81.30
35690;DHT22;26977;44.830;-0.674;2022-09-09T14:39:43;24.70;82.30
35690;DHT22;26977;44.830;-0.674;2022-09-09T14:42:13;24.30;83.80
35690;DHT22;26977;44.830;-0.674;2022-09-09T14:44:39;24.50;84.20
35690;DHT22;26977;44.830;-0.674;2022-09-09T14:47:06;24.10;83.20
35690;DHT22;26977;44.830;-0.674;2022-09-09T14:49:34;23.80;84.10
35690;DHT22;26977;44.830;-0.674;2022-09-09T14:51:59;23.80;84.10
35690;DHT22;26977;44.830;-0.674;2022-09-09T14:54:25;24.70;82.80
35690;DHT22;26977;44.830;-0.674;2022-09-09T14:56:51;25.80;79.90
35690;DHT22;26977;44.830;-0.674;2022-09-09T14:59:17;24.60;81.10
35690;DHT22;26977;44.830;-0.674;2022-09-09T15:01:42;24.60;80.60
35690;DHT22;26977;44.830;-0.674;2022-09-09T15:04:12;23.70;82.50
35690;DHT22;26977;44.830;-0.674;2022-09-09T15:06:40;24.00;81.90
35690;DHT22;26977;44.830;-0.674;2022-09-09T15:09:08;23.70;82.70
35690;DHT22;26977;44.830;-0.674;2022-09-09T15:11:35;23.90;82.30
35690;DHT22;26977;44.830;-0.674;2022-09-09T15:14:06;23.40;83.20
35690;DHT22;26977;44.830;-0.674;2022-09-09T15:16:31;24.60;83.60
35690;DHT22;26977;44.830;-0.674;2022-09-09T15:18:59;26.00;78.50
35690;DHT22;26977;44.830;-0.674;2022-09-09T15:21:30;25.90;79.80
35690;DHT22;26977;44.830;-0.674;2022-09-09T15:23:56;25.40;79.00
35690;DHT22;26977;44.830;-0.674;2022-09-09T15:26:23;25.20;79.80
35690;DHT22;26977;44.830;-0.674;2022-09-09T15:28:49;24.90;81.30
35690;DHT22;26977;44.830;-0.674;2022-09-09T15:31:17;24.60;82.20
35690;DHT22;26977;44.830;-0.674;2022-09-09T15:33:54;23.70;85.50
35690;DHT22;26977;44.830;-0.674;2022-09-09T15:36:36;23.10;86.80
35690;DHT22;26977;44.830;-0.674;2022-09-09T15:39:03;22.80;88.40
35690;DHT22;26977;44.830;-0.674;2022-09-09T15:41:30;22.80;87.50
35690;DHT22;26977;44.830;-0.674;2022-09-09T15:43:57;24.00;85.60
35690;DHT22;26977;44.830;-0.674;2022-09-09T15:46:24;24.50;84.00
35690;DHT22;26977;44.830;-0.674;2022-09-09T15:48:51;24.50;83.60
35690;DHT22;26977;44.830;-0.674;2022-09-09T15:51:17;24.30;83.60
35690;DHT22;26977;44.830;-0.674;2022-09-09T15:53:44;23.70;83.00
35690;DHT22;26977;44.830;-0.674;2022-09-09T15:56:10;23.50;85.10
35690;DHT22;26977;44.830;-0.674;2022-09-09T15:58:36;23.30;85.60
35690;DHT22;26977;44.830;-0.674;2022-09-09T16:01:09;22.80;86.80
35690;DHT22;26977;44.830;-0.674;2022-09-09T16:03:43;23.10;86.60
35690;DHT22;26977;44.830;-0.674;2022-09-09T16:06:11;23.80;86.30
35690;DHT22;26977;44.830;-0.674;2022-09-09T16:08:40;24.20;84.90
35690;DHT22;26977;44.830;-0.674;2022-09-09T16:11:14;24.60;84.40
35690;DHT22;26977;44.830;-0.674;2022-09-09T16:13:42;24.50;84.50
35690;DHT22;26977;44.830;-0.674;2022-09-09T16:16:13;24.00;84.70
35690;DHT22;26977;44.830;-0.674;2022-09-09T16:18:41;23.20;86.60
35690;DHT22;26977;44.830;-0.674;2022-09-09T16:21:08;23.10;87.70
35690;DHT22;26977;44.830;-0.674;2022-09-09T16:23:36;23.00;87.90
35690;DHT22;26977;44.830;-0.674;2022-09-09T16:26:02;23.20;86.90
35690;DHT22;26977;44.830;-0.674;2022-09-09T16:28:29;23.50;85.60
35690;DHT22;26977;44.830;-0.674;2022-09-09T16:30:54;23.80;83.70
35690;DHT22;26977;44.830;-0.674;2022-09-09T16:33:20;23.50;83.90
35690;DHT22;26977;44.830;-0.674;2022-09-09T16:35:47;23.00;85.00
35690;DHT22;26977;44.830;-0.674;2022-09-09T16:38:14;22.60;86.00
35690;DHT22;26977;44.830;-0.674;2022-09-09T16:40:40;22.40;87.00
35690;DHT22;26977;44.830;-0.674;2022-09-09T16:43:07;22.70;86.50
35690;DHT22;26977;44.830;-0.674;2022-09-09T16:45:33;24.00;82.90
35690;DHT22;26977;44.830;-0.674;2022-09-09T16:47:59;24.30;80.50
35690;DHT22;26977;44.830;-0.674;2022-09-09T16:50:26;23.00;84.80
35690;DHT22;26977;44.830;-0.674;2022-09-09T16:52:52;23.40;86.10
35690;DHT22;26977;44.830;-0.674;2022-09-09T16:55:18;23.90;83.30
35690;DHT22;26977;44.830;-0.674;2022-09-09T16:57:46;23.60;84.20
35690;DHT22;26977;44.830;-0.674;2022-09-09T17:00:15;23.50;83.10
35690;DHT22;26977;44.830;-0.674;2022-09-09T17:02:43;23.30;83.50
35690;DHT22;26977;44.830;-0.674;2022-09-09T17:05:10;23.20;84.80
35690;DHT22;26977;44.830;-0.674;2022-09-09T17:07:37;22.90;85.10
35690;DHT22;26977;44.830;-0.674;2022-09-09T17:10:04;22.40;86.30
35690;DHT22;26977;44.830;-0.674;2022-09-09T17:12:30;22.30;87.40
35690;DHT22;26977;44.830;-0.674;2022-09-09T17:14:56;22.60;87.00
35690;DHT22;26977;44.830;-0.674;2022-09-09T17:17:22;22.80;86.20
35690;DHT22;26977;44.830;-0.674;2022-09-09T17:19:47;23.00;85.60
35690;DHT22;26977;44.830;-0.674;2022-09-09T17:22:15;22.60;86.20
35690;DHT22;26977;44.830;-0.674;2022-09-09T17:24:41;22.40;87.50
35690;DHT22;26977;44.830;-0.674;2022-09-09T17:27:07;22.20;87.80
35690;DHT22;26977;44.830;-0.674;2022-09-09T17:29:33;21.90;88.10
35690;DHT22;26977;44.830;-0.674;2022-09-09T17:32:02;21.70;88.70
35690;DHT22;26977;44.830;-0.674;2022-09-09T17:34:27;21.60;89.30
35690;DHT22;26977;44.830;-0.674;2022-09-09T17:36:53;21.50;89.80
35690;DHT22;26977;44.830;-0.674;2022-09-09T17:39:19;21.50;89.50
35690;DHT22;26977;44.830;-0.674;2022-09-09T17:41:45;21.40;89.60